Time;durP1;ratioP1;P1;durP2;ratioP2;P2;SDS_P1;SDS_P2;PMS_P1;PMS_P2;Temp;Humidity;BMP_temperature;BMP_pressure;BME280_temperature;BME280_humidity;BME280_pressure;Samples;Min_cycle;Max_cycle;Signal;HPM_P1;HPM_P2
2022/08/16 00:00:24;;;;;;;;;;;;;;;18.19;60.53;96247.56;30001;983;1880;-71
2022/08/16 00:00:55;;;;;;;;;;;;;;;18.21;60.70;96241.72;30001;983;1876;-71
2022/08/16 00:01:26;;;;;;;;;;;;;;;18.20;60.46;96245.63;30001;983;1881;-72
2022/08/16 00:01:57;;;;;;;;;;;;;;;18.17;60.70;96241.66;30001;983;1876;-71
2022/08/16 00:02:28;;;;;;;;;;;;;;;18.16;60.66;96239.25;30001;959;1812;-73
2022/08/16 00:02:59;;;;;;;;;;;;;;;18.15;60.99;96243.16;30001;983;1876;-72
2022/08/16 00:03:30;;;;;;;;;;;;;;;18.14;60.90;96247.06;30001;982;1859;-71
2022/08/16 00:04:01;;;;;;;;;;;;;;;18.11;61.05;96237.59;30001;982;1872;-72
2022/08/16 00:04:32;;;;;;;;;;;;;;;18.11;61.31;96236.78;30001;982;1881;-71
2022/08/16 00:05:04;;;;;;;;;;;;;;;18.08;61.19;96243.78;30001;982;1877;-71
2022/08/16 00:05:35;;;;;;;;;;;;;;;18.05;61.42;96226.06;30001;982;1881;-71
2022/08/16 00:06:06;;;;;;;;;;;;;;;18.04;61.50;96235.47;30001;983;1876;-72
2022/08/16 00:06:37;;;;;;;;;;;;;;;18.04;61.21;96232.72;30001;983;1880;-72
2022/08/16 00:07:08;;;;;;;;;;;;;;;18.02;61.15;96240.50;30001;983;1876;-73
2022/08/16 00:07:40;;;;;;;;;;;;;;;18.01;61.45;96233.47;30001;983;1859;-71
2022/08/16 00:08:10;;;;;;;;;;;;;;;18.05;61.58;96244.50;30001;983;1872;-71
2022/08/16 00:08:41;;;;;;;;;;;;;;;18.03;61.74;96239.34;30001;983;1881;-70
2022/08/16 00:09:12;;;;;;;;;;;;;;;18.03;61.48;96241.31;30001;983;1876;-75
2022/08/16 00:09:43;;;;;;;;;;;;;;;18.02;61.54;96235.00;30001;983;1881;-72
2022/08/16 00:10:14;;;;;;;;;;;;;;;18.00;61.68;96237.34;30001;983;1876;-73
2022/08/16 00:10:47;;;;;;;;;;;;;;;18.02;61.53;96235.00;30001;982;1881;-71
2022/08/16 00:11:19;;;;;;;;;;;;;;;18.01;62.13;96238.94;30001;982;1877;-73
2022/08/16 00:11:50;;;;;;;;;;;;;;;17.99;62.58;96241.25;30001;982;1881;-72
2022/08/16 00:12:21;;;;;;;;;;;;;;;17.97;62.30;96237.25;30001;982;1877;-72
2022/08/16 00:12:53;;;;;;;;;;;;;;;17.95;62.41;96234.88;30001;982;1859;-71
2022/08/16 00:13:23;;;;;;;;;;;;;;;17.94;62.29;96241.50;30001;983;1872;-71
2022/08/16 00:13:54;;;;;;;;;;;;;;;17.95;62.14;96245.06;30001;971;1905;-70
2022/08/16 00:14:27;;;;;;;;;;;;;;;17.99;62.16;96245.94;30001;983;1876;-56
2022/08/16 00:14:59;;;;;;;;;;;;;;;17.99;62.08;96241.25;30001;983;1881;-72
2022/08/16 00:15:33;;;;;;;;;;;;;;;17.98;62.12;96239.66;30001;983;1876;-72
2022/08/16 00:16:03;;;;;;;;;;;;;;;18.00;62.04;96245.59;30001;983;1881;-72
2022/08/16 00:16:35;;;;;;;;;;;;;;;18.01;61.78;96241.69;30001;983;1876;-71
2022/08/16 00:17:05;;;;;;;;;;;;;;;18.02;61.99;96240.50;30001;971;1902;-72
2022/08/16 00:17:38;;;;;;;;;;;;;;;17.99;62.14;96238.50;30001;983;1877;-71
2022/08/16 00:18:09;;;;;;;;;;;;;;;18.00;62.17;96242.84;30001;983;1859;-72
2022/08/16 00:18:40;;;;;;;;;;;;;;;17.98;61.83;96244.34;30001;982;1872;-71
2022/08/16 00:19:12;;;;;;;;;;;;;;;17.99;62.07;96241.25;30001;982;1881;-69
2022/08/16 00:19:43;;;;;;;;;;;;;;;18.02;61.54;96234.22;30001;982;1877;-71
2022/08/16 00:20:15;;;;;;;;;;;;;;;18.02;61.80;96243.25;30001;982;1881;-71
2022/08/16 00:20:46;;;;;;;;;;;;;;;18.01;62.04;96238.16;30001;983;1876;-71
2022/08/16 00:21:17;;;;;;;;;;;;;;;17.99;61.85;96241.25;30001;983;1880;-73
2022/08/16 00:21:49;;;;;;;;;;;;;;;17.96;61.81;96241.97;30001;983;1876;-71
2022/08/16 00:22:20;;;;;;;;;;;;;;;17.94;61.90;96241.50;30001;983;1881;-71
2022/08/16 00:22:51;;;;;;;;;;;;;;;17.98;61.68;96244.34;30001;983;1876;-71
2022/08/16 00:23:22;;;;;;;;;;;;;;;18.01;61.98;96238.16;30001;983;1859;-73
2022/08/16 00:23:53;;;;;;;;;;;;;;;17.99;61.93;96238.50;30001;983;1872;-71
2022/08/16 00:24:25;;;;;;;;;;;;;;;18.00;62.17;96248.34;30001;983;1881;-71
2022/08/16 00:24:56;;;;;;;;;;;;;;;18.00;61.83;96242.03;30001;987;1877;-70
2022/08/16 00:25:27;;;;;;;;;;;;;;;18.07;61.86;96247.69;30001;983;1881;-72
2022/08/16 00:25:58;;;;;;;;;;;;;;;18.02;62.18;96248.75;30001;982;1877;-72
2022/08/16 00:26:28;;;;;;;;;;;;;;;17.99;62.38;96245.94;30001;982;1881;-71
2022/08/16 00:27:01;;;;;;;;;;;;;;;17.94;62.66;96248.94;30001;982;1877;-72
2022/08/16 00:27:31;;;;;;;;;;;;;;;17.90;62.75;96248.06;30001;982;1881;-70
2022/08/16 00:28:03;;;;;;;;;;;;;;;17.90;62.21;96243.37;30001;982;1877;-71
2022/08/16 00:28:37;;;;;;;;;;;;;;;17.91;62.53;96246.91;30001;983;1858;-70
2022/08/16 00:29:08;;;;;;;;;;;;;;;18.01;62.03;96243.63;30001;983;1872;-71
2022/08/16 00:29:43;;;;;;;;;;;;;;;18.02;61.92;96247.94;30001;983;1881;-71
2022/08/16 00:30:15;;;;;;;;;;;;;;;17.97;62.01;96243.56;30001;983;1876;-71
2022/08/16 00:30:47;;;;;;;;;;;;;;;17.96;62.38;96244.69;30001;983;1859;-71
2022/08/16 00:31:19;;;;;;;;;;;;;;;17.93;62.20;96245.41;30001;983;1872;-72
2022/08/16 00:31:51;;;;;;;;;;;;;;;17.94;62.06;96244.25;30001;983;1881;-73
2022/08/16 00:32:22;;;;;;;;;;;;;;;17.93;62.20;96250.09;30001;983;1877;-72
2022/08/16 00:32:55;;;;;;;;;;;;;;;17.89;62.69;96241.78;30001;982;1881;-72
2022/08/16 00:33:26;;;;;;;;;;;;;;;17.86;62.67;96252.66;30001;982;1877;-71
2022/08/16 00:33:57;;;;;;;;;;;;;;;17.85;63.09;96246.38;30001;982;1881;-71
2022/08/16 00:34:28;;;;;;;;;;;;;;;17.86;62.78;96253.47;30001;982;1877;-73
2022/08/16 00:34:59;;;;;;;;;;;;;;;17.87;62.69;96249.56;30001;982;1881;-71
2022/08/16 00:35:32;;;;;;;;;;;;;;;17.85;63.14;96246.38;30001;982;1877;-71
2022/08/16 00:36:04;;;;;;;;;;;;;;;17.84;62.85;96244.00;30001;983;1859;-71
2022/08/16 00:36:34;;;;;;;;;;;;;;;17.87;62.69;96249.56;30001;983;1872;-72
2022/08/16 00:37:05;;;;;;;;;;;;;;;17.86;62.74;96247.97;30001;968;1801;-71
2022/08/16 00:37:36;;;;;;;;;;;;;;;17.86;63.10;96247.19;30001;983;1876;-73
2022/08/16 00:38:07;;;;;;;;;;;;;;;17.87;62.86;96244.09;30001;983;1881;-69
2022/08/16 00:38:38;;;;;;;;;;;;;;;17.87;62.79;96260.56;30001;983;1876;-72
2022/08/16 00:39:09;;;;;;;;;;;;;;;17.89;62.97;96257.44;30001;983;1881;-71
2022/08/16 00:39:40;;;;;;;;;;;;;;;17.88;63.01;96245.69;30001;983;1877;-72
2022/08/16 00:40:25;;;;;;;;;;;;;;;17.88;63.00;96256.66;30001;982;1881;-72
2022/08/16 00:40:58;;;;;;;;;;;;;;;17.88;62.94;96251.16;30001;982;1855;-72
2022/08/16 00:41:30;;;;;;;;;;;;;;;17.89;63.03;96252.75;30001;982;1877;-72
2022/08/16 00:42:01;;;;;;;;;;;;;;;17.87;63.11;96260.56;30001;982;1877;-71
2022/08/16 00:42:32;;;;;;;;;;;;;;;17.87;63.31;96260.56;30001;982;1881;-71
2022/08/16 00:43:07;;;;;;;;;;;;;;;17.85;63.44;96257.38;30001;982;1877;-58
2022/08/16 00:43:41;;;;;;;;;;;;;;;17.84;63.10;96266.75;30001;983;1880;-70
2022/08/16 00:44:13;;;;;;;;;;;;;;;17.87;63.53;96257.81;30001;983;1876;-71
2022/08/16 00:44:49;;;;;;;;;;;;;;;17.87;63.38;96257.00;30001;983;1881;-72
2022/08/16 00:45:32;;;;;;;;;;;;;;;17.89;63.44;96260.19;30001;983;1876;-72
2022/08/16 00:46:23;;;;;;;;;;;;;;;17.86;63.42;96260.91;30001;983;1859;-71
2022/08/16 00:47:00;;;;;;;;;;;;;;;17.87;63.38;96260.56;30001;983;1867;-72
2022/08/16 00:47:31;;;;;;;;;;;;;;;17.87;63.96;96259.75;30001;983;1881;-71
2022/08/16 00:48:16;;;;;;;;;;;;;;;17.87;64.10;96257.81;30001;962;1875;-71
2022/08/16 00:48:47;;;;;;;;;;;;;;;17.88;64.16;96261.34;30001;972;1896;-71
2022/08/16 00:49:19;;;;;;;;;;;;;;;17.87;64.14;96259.75;30001;982;1855;-72
2022/08/16 00:49:49;;;;;;;;;;;;;;;17.86;63.95;96264.44;30001;982;1877;-70
2022/08/16 00:50:23;;;;;;;;;;;;;;;17.85;64.08;96257.38;30001;983;1876;-72
2022/08/16 00:50:53;;;;;;;;;;;;;;;17.83;64.04;96259.66;30001;983;1880;-71
2022/08/16 00:51:24;;;;;;;;;;;;;;;17.80;64.50;96254.88;30001;983;1876;-72
2022/08/16 00:51:55;;;;;;;;;;;;;;;17.81;64.16;96255.69;30001;983;1880;-72
2022/08/16 00:52:26;;;;;;;;;;;;;;;17.79;64.22;96264.25;30001;983;1876;-57
2022/08/16 00:52:57;;;;;;;;;;;;;;;17.78;64.69;96259.13;30001;983;1881;-73
2022/08/16 00:53:28;;;;;;;;;;;;;;;17.76;65.02;96259.47;30001;983;1876;-72
2022/08/16 00:54:00;;;;;;;;;;;;;;;17.75;64.96;96263.38;30001;983;1881;-71
2022/08/16 00:54:34;;;;;;;;;;;;;;;17.72;64.97;96259.37;30001;983;1855;-73
2022/08/16 00:55:06;;;;;;;;;;;;;;;17.71;64.74;96257.78;30001;983;1854;-71
2022/08/16 00:55:39;;;;;;;;;;;;;;;17.70;64.68;96255.41;30001;982;1877;-71
2022/08/16 00:56:12;;;;;;;;;;;;;;;17.72;64.92;96253.91;30001;982;1881;-72
2022/08/16 00:56:46;;;;;;;;;;;;;;;17.74;64.89;96257.09;30001;982;1877;-72
2022/08/16 00:57:16;;;;;;;;;;;;;;;17.76;64.94;96256.75;30001;982;1881;-71
2022/08/16 00:57:48;;;;;;;;;;;;;;;17.76;65.12;96259.47;30001;983;1876;-72
2022/08/16 00:58:20;;;;;;;;;;;;;;;17.75;65.32;96252.41;30001;983;1880;-57
2022/08/16 00:58:51;;;;;;;;;;;;;;;17.75;65.03;96252.41;30001;983;1876;-71
2022/08/16 00:59:24;;;;;;;;;;;;;;;17.76;65.45;96254.00;30001;983;1881;-71
2022/08/16 00:59:55;;;;;;;;;;;;;;;17.75;65.29;96253.19;30001;983;1876;-71
2022/08/16 01:00:27;;;;;;;;;;;;;;;17.73;65.99;96257.44;30001;983;1859;-72
2022/08/16 01:00:58;;;;;;;;;;;;;;;17.71;65.45;96257.00;30001;983;1872;-57
2022/08/16 01:01:31;;;;;;;;;;;;;;;17.70;66.00;96255.41;30001;981;1894;-71
2022/08/16 01:02:05;;;;;;;;;;;;;;;17.69;66.20;96256.56;30001;965;1894;-72
2022/08/16 01:02:36;;;;;;;;;;;;;;;17.70;66.13;96258.16;30001;983;1881;-71
2022/08/16 01:03:09;;;;;;;;;;;;;;;17.69;66.16;96259.28;30001;982;1877;-71
2022/08/16 01:03:42;;;;;;;;;;;;;;;17.68;66.02;96263.19;30001;982;1881;-71
2022/08/16 01:04:15;;;;;;;;;;;;;;;17.67;66.00;96256.13;30001;982;1877;-72
2022/08/16 01:04:46;;;;;;;;;;;;;;;17.66;66.21;96255.34;30001;982;1881;-72
2022/08/16 01:05:18;;;;;;;;;;;;;;;17.65;66.19;96259.22;30001;983;1876;-71
2022/08/16 01:05:49;;;;;;;;;;;;;;;17.67;66.68;96248.69;30001;983;1858;-71
2022/08/16 01:06:20;;;;;;;;;;;;;;;17.75;66.15;96263.38;30001;983;1872;-72
2022/08/16 01:06:52;;;;;;;;;;;;;;;17.82;65.64;96260.00;30001;983;1881;-67
2022/08/16 01:07:23;;;;;;;;;;;;;;;17.80;65.68;96259.56;30001;983;1876;-71
2022/08/16 01:07:54;;;;;;;;;;;;;;;17.78;65.89;96259.94;30001;983;1880;-71
2022/08/16 01:08:25;;;;;;;;;;;;;;;17.75;66.31;96253.19;30001;983;1876;-73
2022/08/16 01:08:57;;;;;;;;;;;;;;;17.72;66.28;96259.37;30001;983;1881;-71
2022/08/16 01:09:28;;;;;;;;;;;;;;;17.69;66.71;96254.59;30001;983;1876;-71
2022/08/16 01:09:59;;;;;;;;;;;;;;;17.66;66.63;96255.34;30001;983;1880;-73
2022/08/16 01:10:30;;;;;;;;;;;;;;;17.66;66.28;96268.25;30001;982;1876;-71
2022/08/16 01:11:02;;;;;;;;;;;;;;;17.70;66.37;96255.41;30001;982;1859;-71
2022/08/16 01:11:35;;;;;;;;;;;;;;;17.71;66.32;96265.22;30001;982;1872;-71
2022/08/16 01:12:07;;;;;;;;;;;;;;;17.69;65.85;96260.09;30001;982;1881;-71
2022/08/16 01:12:38;;;;;;;;;;;;;;;17.68;66.22;96263.19;30001;982;1876;-73
2022/08/16 01:13:11;;;;;;;;;;;;;;;17.70;66.26;96252.66;30001;983;1880;-71
2022/08/16 01:13:42;;;;;;;;;;;;;;;17.70;66.55;96255.41;30001;983;1876;-71
2022/08/16 01:14:18;;;;;;;;;;;;;;;17.69;66.45;96256.56;30001;983;1880;-71
2022/08/16 01:14:53;;;;;;;;;;;;;;;17.68;66.53;96261.25;30001;983;1876;-57
2022/08/16 01:15:25;;;;;;;;;;;;;;;17.70;66.45;96258.16;30001;983;1880;-73
2022/08/16 01:16:00;;;;;;;;;;;;;;;17.77;66.07;96250.09;30001;983;1854;-70
2022/08/16 01:16:31;;;;;;;;;;;;;;;17.78;66.01;96257.19;30001;983;1876;-71
2022/08/16 01:17:03;;;;;;;;;;;;;;;17.76;66.40;96256.75;30001;983;1876;-71
2022/08/16 01:17:34;;;;;;;;;;;;;;;17.75;66.38;96252.41;30001;983;1880;-73
2022/08/16 01:18:07;;;;;;;;;;;;;;;17.72;66.18;96258.59;30001;982;1876;-71
2022/08/16 01:18:41;;;;;;;;;;;;;;;17.71;65.99;96257.00;30001;982;1881;-71
2022/08/16 01:19:25;;;;;;;;;;;;;;;17.73;66.04;96254.69;30001;982;1876;-72
2022/08/16 01:19:59;;;;;;;;;;;;;;;17.73;66.32;96254.69;30001;982;1881;-71
2022/08/16 01:20:33;;;;;;;;;;;;;;;17.70;66.69;96260.88;30001;983;1876;-71
2022/08/16 01:21:14;;;;;;;;;;;;;;;17.69;66.41;96248.31;30001;983;1858;-73
2022/08/16 01:21:56;;;;;;;;;;;;;;;17.70;66.49;96255.41;30001;983;1871;-72
2022/08/16 01:22:33;;;;;;;;;;;;;;;17.67;66.50;96251.41;30001;983;1880;-73
2022/08/16 01:23:11;;;;;;;;;;;;;;;17.63;67.15;96261.50;30001;983;1876;-71
2022/08/16 01:24:08;;;;;;;;;;;;;;;17.61;66.61;96257.53;30001;983;1880;-71
2022/08/16 01:24:40;;;;;;;;;;;;;;;17.65;66.76;96252.94;30001;982;1872;-72
2022/08/16 01:25:17;;;;;;;;;;;;;;;17.67;66.63;96261.63;30001;982;1880;-71
2022/08/16 01:25:52;;;;;;;;;;;;;;;17.69;66.83;96259.28;30001;982;1876;-72
2022/08/16 01:26:32;;;;;;;;;;;;;;;17.68;66.40;96255.75;30001;982;1859;-71
2022/08/16 01:27:15;;;;;;;;;;;;;;;17.72;66.68;96253.09;30001;982;1872;-73
2022/08/16 01:27:48;;;;;;;;;;;;;;;17.71;66.72;96255.06;30001;982;1881;-73
2022/08/16 01:28:20;;;;;;;;;;;;;;;17.68;66.76;96252.22;30001;983;1876;-71
2022/08/16 01:28:51;;;;;;;;;;;;;;;17.66;66.98;96257.28;30001;983;1858;-71
2022/08/16 01:29:26;;;;;;;;;;;;;;;17.65;67.17;96261.97;30001;983;1871;-75
2022/08/16 01:30:16;;;;;;;;;;;;;;;17.70;66.98;96264.44;30001;983;1880;-71
2022/08/16 01:30:53;;;;;;;;;;;;;;;17.77;66.35;96255.59;30001;983;1876;-71
2022/08/16 01:31:25;;;;;;;;;;;;;;;17.75;66.42;96253.19;30001;983;1880;-71
2022/08/16 01:31:56;;;;;;;;;;;;;;;17.73;66.41;96254.69;30001;983;1854;-73
2022/08/16 01:32:29;;;;;;;;;;;;;;;17.70;67.07;96260.88;30001;982;1876;-72
2022/08/16 01:33:02;;;;;;;;;;;;;;;17.71;66.69;96252.31;30001;982;1876;-72
2022/08/16 01:33:33;;;;;;;;;;;;;;;17.72;66.96;96258.59;30001;982;1881;-71
2022/08/16 01:34:04;;;;;;;;;;;;;;;17.76;66.89;96254.00;30001;982;1876;-73
2022/08/16 01:34:35;;;;;;;;;;;;;;;17.73;66.89;96254.69;30001;982;1881;-71
2022/08/16 01:35:08;;;;;;;;;;;;;;;17.75;66.69;96257.88;30001;982;1855;-73
2022/08/16 01:35:59;;;;;;;;;;;;;;;17.78;67.03;96257.19;30001;968;1852;-71
2022/08/16 01:36:30;;;;;;;;;;;;;;;17.77;66.82;96254.78;30001;983;1871;-71
2022/08/16 01:37:06;;;;;;;;;;;;;;;17.74;67.07;96262.56;30001;983;1880;-72
2022/08/16 01:37:39;;;;;;;;;;;;;;;17.77;66.94;96261.06;30001;983;1876;-70
2022/08/16 01:38:36;;;;;;;;;;;;;;;17.82;66.95;96257.28;30001;983;1858;-73
2022/08/16 01:39:09;;;;;;;;;;;;;;;17.77;67.21;96261.06;30001;983;1867;-71
2022/08/16 01:39:42;;;;;;;;;;;;;;;17.71;67.38;96262.47;30001;982;1859;-56
2022/08/16 01:40:15;;;;;;;;;;;;;;;17.67;67.43;96264.38;30001;982;1872;-72
2022/08/16 01:40:47;;;;;;;;;;;;;;;17.64;67.44;96256.81;30001;982;1881;-71
2022/08/16 01:41:20;;;;;;;;;;;;;;;17.63;67.70;96260.72;30001;982;1876;-71
2022/08/16 01:41:51;;;;;;;;;;;;;;;17.61;68.04;96263.81;30001;982;1881;-72
2022/08/16 01:42:22;;;;;;;;;;;;;;;17.59;67.72;96259.81;30001;982;1876;-73
2022/08/16 01:42:54;;;;;;;;;;;;;;;17.58;67.55;96258.22;30001;982;1881;-72
2022/08/16 01:43:25;;;;;;;;;;;;;;;17.57;67.54;96267.59;30001;983;1876;-71
2022/08/16 01:43:57;;;;;;;;;;;;;;;17.56;67.56;96261.31;30001;983;1858;-73
2022/08/16 01:44:28;;;;;;;;;;;;;;;17.55;68.39;96267.16;30001;983;1871;-71
2022/08/16 01:44:59;;;;;;;;;;;;;;;17.54;68.21;96265.56;30001;983;1859;-72
2022/08/16 01:45:34;;;;;;;;;;;;;;;17.52;68.35;96267.84;30001;983;1872;-71
2022/08/16 01:46:07;;;;;;;;;;;;;;;17.51;68.51;96266.25;30001;983;1881;-71
2022/08/16 01:46:43;;;;;;;;;;;;;;;17.49;68.49;96263.06;30001;983;1876;-72
2022/08/16 01:47:14;;;;;;;;;;;;;;;17.48;68.56;96259.53;30001;982;1881;-72
2022/08/16 01:47:48;;;;;;;;;;;;;;;17.47;68.47;96257.94;30001;982;1876;-73
2022/08/16 01:48:19;;;;;;;;;;;;;;;17.47;69.07;96265.38;30001;982;1859;-58
2022/08/16 01:48:57;;;;;;;;;;;;;;;17.45;68.69;96270.41;30001;982;1872;-72
2022/08/16 01:49:54;;;;;;;;;;;;;;;17.41;69.18;96260.13;30001;982;1881;-71
2022/08/16 01:50:25;;;;;;;;;;;;;;;17.38;69.24;96260.84;30001;982;1872;-72
2022/08/16 01:50:56;;;;;;;;;;;;;;;17.37;69.07;96259.25;30001;983;1880;-73
2022/08/16 01:51:27;;;;;;;;;;;;;;;17.38;68.86;96260.03;30001;983;1854;-72
2022/08/16 01:51:59;;;;;;;;;;;;;;;17.45;68.56;96253.94;30001;983;1876;-72
2022/08/16 01:52:32;;;;;;;;;;;;;;;17.51;68.77;96252.53;30001;983;1854;-71
2022/08/16 01:53:02;;;;;;;;;;;;;;;17.53;68.63;96255.72;30001;983;1876;-73
2022/08/16 01:53:33;;;;;;;;;;;;;;;17.53;68.22;96250.25;30001;983;1876;-72
2022/08/16 01:54:04;;;;;;;;;;;;;;;17.52;68.43;96259.63;30001;983;1880;-71
2022/08/16 01:54:35;;;;;;;;;;;;;;;17.52;68.33;96259.63;30001;983;1876;-71
2022/08/16 01:55:06;;;;;;;;;;;;;;;17.52;68.38;96263.16;30001;982;1881;-72
2022/08/16 01:55:39;;;;;;;;;;;;;;;17.53;68.68;96262.03;30001;982;1833;-71
2022/08/16 01:56:11;;;;;;;;;;;;;;;17.54;68.72;96260.06;30001;982;1881;-73
2022/08/16 01:56:42;;;;;;;;;;;;;;;17.55;68.23;96258.94;30001;982;1876;-70
2022/08/16 01:57:13;;;;;;;;;;;;;;;17.54;68.25;96258.13;30001;983;1858;-72
2022/08/16 01:57:43;;;;;;;;;;;;;;;17.54;68.54;96257.34;30001;986;1871;-72
2022/08/16 01:58:15;;;;;;;;;;;;;;;17.53;68.16;96266.72;30001;983;1880;-73
2022/08/16 01:58:47;;;;;;;;;;;;;;;17.53;68.61;96258.47;30001;983;1876;-72
2022/08/16 01:59:17;;;;;;;;;;;;;;;17.53;68.26;96255.72;30001;983;1880;-73
2022/08/16 01:59:48;;;;;;;;;;;;;;;17.52;68.54;96265.13;30001;983;1876;-72
2022/08/16 02:00:19;;;;;;;;;;;;;;;17.54;68.72;96262.81;30001;983;1880;-73
2022/08/16 02:00:50;;;;;;;;;;;;;;;17.53;68.69;96259.28;30001;983;1876;-73
2022/08/16 02:01:22;;;;;;;;;;;;;;;17.54;68.59;96263.63;30001;983;1859;-71
2022/08/16 02:01:53;;;;;;;;;;;;;;;17.55;68.73;96259.72;30001;983;1872;-72
2022/08/16 02:02:24;;;;;;;;;;;;;;;17.55;68.68;96258.94;30001;982;1881;-70
2022/08/16 02:02:55;;;;;;;;;;;;;;;17.55;68.35;96253.44;30001;982;1855;-70
2022/08/16 02:03:29;;;;;;;;;;;;;;;17.56;68.62;96260.53;30001;982;1876;-72
2022/08/16 02:04:00;;;;;;;;;;;;;;;17.55;68.38;96259.72;30001;982;1876;-68
2022/08/16 02:04:32;;;;;;;;;;;;;;;17.58;68.16;96258.22;30001;982;1880;-70
2022/08/16 02:05:04;;;;;;;;;;;;;;;17.57;67.96;96251.94;30001;983;1876;-71
2022/08/16 02:05:35;;;;;;;;;;;;;;;17.58;67.83;96258.22;30001;983;1880;-71
2022/08/16 02:06:06;;;;;;;;;;;;;;;17.61;67.93;96263.00;30001;983;1876;-72
2022/08/16 02:06:39;;;;;;;;;;;;;;;17.62;67.85;96248.94;30001;983;1880;-70
2022/08/16 02:07:12;;;;;;;;;;;;;;;17.64;67.50;96259.56;30001;983;1854;-73
2022/08/16 02:07:43;;;;;;;;;;;;;;;17.63;67.68;96256.03;30001;983;1876;-67
2022/08/16 02:08:14;;;;;;;;;;;;;;;17.63;67.69;96255.22;30001;983;1876;-73
2022/08/16 02:08:45;;;;;;;;;;;;;;;17.63;67.67;96252.47;30001;983;1880;-69
2022/08/16 02:09:18;;;;;;;;;;;;;;;17.61;67.71;96252.81;30001;983;1876;-69
2022/08/16 02:09:49;;;;;;;;;;;;;;;17.60;67.63;96245.75;30001;982;1881;-69
2022/08/16 02:10:20;;;;;;;;;;;;;;;17.60;67.35;96250.44;30001;982;1877;-70
2022/08/16 02:10:51;;;;;;;;;;;;;;;17.63;67.78;96252.47;30001;982;1881;-71
2022/08/16 02:11:22;;;;;;;;;;;;;;;17.63;67.39;96257.97;30001;982;1877;-69
2022/08/16 02:11:56;;;;;;;;;;;;;;;17.72;67.06;96245.66;30001;982;1859;-67
2022/08/16 02:12:28;;;;;;;;;;;;;;;17.77;66.84;96250.09;30001;983;1850;-69
2022/08/16 02:12:59;;;;;;;;;;;;;;;17.79;66.98;96255.22;30001;983;1880;-69
2022/08/16 02:13:31;;;;;;;;;;;;;;;17.80;66.48;96260.38;30001;983;1876;-70
2022/08/16 02:14:02;;;;;;;;;;;;;;;17.80;67.04;96252.13;30001;983;1786;-70
2022/08/16 02:14:35;;;;;;;;;;;;;;;17.77;66.64;96247.34;30001;983;1876;-70
2022/08/16 02:15:07;;;;;;;;;;;;;;;17.83;66.70;96254.19;30001;983;1880;-68
2022/08/16 02:15:40;;;;;;;;;;;;;;;17.78;66.60;96251.69;30001;983;1876;-69
2022/08/16 02:16:11;;;;;;;;;;;;;;;17.82;66.72;96260.81;30001;983;1881;-68
2022/08/16 02:16:43;;;;;;;;;;;;;;;17.82;66.42;96252.59;30001;983;1877;-70
2022/08/16 02:17:14;;;;;;;;;;;;;;;17.81;66.66;96261.97;30001;983;1859;-73
2022/08/16 02:17:45;;;;;;;;;;;;;;;17.79;66.74;96253.28;30001;982;1872;-70
2022/08/16 02:18:16;;;;;;;;;;;;;;;17.73;66.72;96251.94;30001;982;1881;-70
2022/08/16 02:18:47;;;;;;;;;;;;;;;17.71;66.67;96251.50;30001;982;1877;-74
2022/08/16 02:19:18;;;;;;;;;;;;;;;17.67;66.79;96250.66;30001;982;1881;-72
2022/08/16 02:19:50;;;;;;;;;;;;;;;17.65;66.71;96253.75;30001;983;1876;-73
2022/08/16 02:20:22;;;;;;;;;;;;;;;17.62;66.98;96250.87;30001;983;1880;-71
2022/08/16 02:20:53;;;;;;;;;;;;;;;17.60;66.94;96250.44;30001;983;1876;-70
2022/08/16 02:21:24;;;;;;;;;;;;;;;17.56;67.45;96255.03;30001;983;1858;-71
2022/08/16 02:21:56;;;;;;;;;;;;;;;17.55;67.29;96253.44;30001;983;1872;-57
2022/08/16 02:22:27;;;;;;;;;;;;;;;17.58;67.09;96248.03;30001;983;1802;-70
2022/08/16 02:22:59;;;;;;;;;;;;;;;17.61;67.12;96247.34;30001;983;1876;-57
2022/08/16 02:23:32;;;;;;;;;;;;;;;17.64;66.84;96251.31;30001;983;1881;-56
2022/08/16 02:24:04;;;;;;;;;;;;;;;17.63;66.99;96253.28;30001;983;1855;-70
2022/08/16 02:24:36;;;;;;;;;;;;;;;17.61;67.03;96252.81;30001;983;1876;-71
2022/08/16 02:25:09;;;;;;;;;;;;;;;17.64;66.91;96256.81;30001;982;1855;-70
2022/08/16 02:25:41;;;;;;;;;;;;;;;17.64;67.34;96240.34;30001;982;1877;-58
2022/08/16 02:26:14;;;;;;;;;;;;;;;17.63;67.03;96249.72;30001;982;1855;-66
2022/08/16 02:26:45;;;;;;;;;;;;;;;17.62;66.98;96248.94;30001;982;1877;-72
2022/08/16 02:27:16;;;;;;;;;;;;;;;17.61;67.06;96252.81;30001;982;1877;-73
2022/08/16 02:27:47;;;;;;;;;;;;;;;17.55;67.20;96248.75;30001;983;1859;-57
2022/08/16 02:28:19;;;;;;;;;;;;;;;17.53;67.37;96245.56;30001;983;1872;-73
2022/08/16 02:28:49;;;;;;;;;;;;;;;17.53;67.40;96247.50;30001;983;1881;-71
2022/08/16 02:29:21;;;;;;;;;;;;;;;17.50;67.41;96248.22;30001;983;1854;-71
2022/08/16 02:29:52;;;;;;;;;;;;;;;17.50;67.29;96256.44;30001;983;1854;-73
2022/08/16 02:30:24;;;;;;;;;;;;;;;17.50;67.59;96245.47;30001;983;1876;-70
2022/08/16 02:30:56;;;;;;;;;;;;;;;17.47;67.64;96251.66;30001;983;1881;-69
2022/08/16 02:31:27;;;;;;;;;;;;;;;17.41;67.74;96246.44;30001;983;1877;-70
2022/08/16 02:31:58;;;;;;;;;;;;;;;17.39;67.47;96245.97;30001;982;1881;-70
2022/08/16 02:32:29;;;;;;;;;;;;;;;17.43;67.75;96246.06;30001;982;1877;-69
2022/08/16 02:33:00;;;;;;;;;;;;;;;17.46;67.69;96247.31;30001;982;1859;-69
2022/08/16 02:33:31;;;;;;;;;;;;;;;17.46;67.72;96247.31;30001;982;1872;-71
2022/08/16 02:34:06;;;;;;;;;;;;;;;17.45;67.57;96242.97;30001;982;1881;-71
2022/08/16 02:34:37;;;;;;;;;;;;;;;17.42;67.55;96248.03;30001;982;1877;-72
2022/08/16 02:35:09;;;;;;;;;;;;;;;17.38;67.73;96244.37;30001;983;1880;-72
2022/08/16 02:35:40;;;;;;;;;;;;;;;17.34;67.49;96242.69;30001;983;1876;-58
2022/08/16 02:36:11;;;;;;;;;;;;;;;17.34;67.86;96243.50;30001;986;1881;-72
2022/08/16 02:36:43;;;;;;;;;;;;;;;17.30;68.18;96242.63;30001;983;1876;-72
2022/08/16 02:37:13;;;;;;;;;;;;;;;17.29;68.31;96240.25;30001;983;1881;-71
2022/08/16 02:37:48;;;;;;;;;;;;;;;17.28;68.54;96242.19;30001;983;1876;-57
2022/08/16 02:38:19;;;;;;;;;;;;;;;17.32;68.49;96240.34;30001;983;1760;-57
2022/08/16 02:38:50;;;;;;;;;;;;;;;17.32;68.47;96245.03;30001;983;1872;-72
2022/08/16 02:39:21;;;;;;;;;;;;;;;17.29;68.24;96246.53;30001;982;1881;-72
2022/08/16 02:39:52;;;;;;;;;;;;;;;17.30;68.40;96247.31;30001;982;1876;-71
2022/08/16 02:40:23;;;;;;;;;;;;;;;17.32;68.61;96240.34;30001;982;1881;-73
2022/08/16 02:40:55;;;;;;;;;;;;;;;17.34;68.52;96242.69;30001;982;1877;-73
2022/08/16 02:41:26;;;;;;;;;;;;;;;17.32;68.21;96240.34;30001;982;1881;-73
2022/08/16 02:41:58;;;;;;;;;;;;;;;17.31;68.39;96244.22;30001;982;1855;-73
2022/08/16 02:42:28;;;;;;;;;;;;;;;17.28;68.34;96250.41;30001;983;1876;-73
2022/08/16 02:42:59;;;;;;;;;;;;;;;17.28;68.91;96247.66;30001;983;1876;-74
2022/08/16 02:43:31;;;;;;;;;;;;;;;17.27;68.75;96248.00;30001;983;1880;-73
2022/08/16 02:44:04;;;;;;;;;;;;;;;17.25;68.52;96244.81;30001;983;1876;-73
2022/08/16 02:44:35;;;;;;;;;;;;;;;17.24;68.46;96249.50;30001;977;1896;-73
2022/08/16 02:45:06;;;;;;;;;;;;;;;17.24;68.64;96243.22;30001;983;1876;-74
2022/08/16 02:45:37;;;;;;;;;;;;;;;17.25;68.70;96251.09;30002;983;1881;-73
2022/08/16 02:46:08;;;;;;;;;;;;;;;17.25;69.16;96245.63;30002;983;1855;-74
2022/08/16 02:46:40;;;;;;;;;;;;;;;17.25;69.00;96245.63;30002;983;1855;-73
2022/08/16 02:47:11;;;;;;;;;;;;;;;17.24;69.67;96249.50;30002;982;1877;-73
2022/08/16 02:47:42;;;;;;;;;;;;;;;17.26;69.50;96246.41;30002;982;1881;-69
2022/08/16 02:48:16;;;;;;;;;;;;;;;17.26;69.44;96241.72;30002;982;1877;-73
2022/08/16 02:48:46;;;;;;;;;;;;;;;17.26;69.19;96241.72;30002;982;1881;-74
2022/08/16 02:49:18;;;;;;;;;;;;;;;17.26;69.30;96235.47;30002;982;1877;-73
2022/08/16 02:49:52;;;;;;;;;;;;;;;17.26;69.67;96239.00;30002;982;1881;-74
2022/08/16 02:50:23;;;;;;;;;;;;;;;17.27;69.36;96239.78;30002;983;1876;-72
2022/08/16 02:50:56;;;;;;;;;;;;;;;17.27;69.17;96237.06;30002;983;1859;-72
2022/08/16 02:51:27;;;;;;;;;;;;;;;17.27;69.54;96240.59;30001;983;1872;-73
2022/08/16 02:51:57;;;;;;;;;;;;;;;17.29;69.63;96243.78;30002;985;1881;-73
2022/08/16 02:52:28;;;;;;;;;;;;;;;17.29;69.59;96238.28;30002;983;1876;-73
2022/08/16 02:52:59;;;;;;;;;;;;;;;17.29;69.55;96238.28;30002;983;1881;-73
2022/08/16 02:53:31;;;;;;;;;;;;;;;17.29;69.78;96240.25;30002;983;1877;-74
2022/08/16 02:54:01;;;;;;;;;;;;;;;17.28;69.71;96238.66;30002;983;1881;-73